createdAt,value
2018-06-27T00:00:13.463Z,5.90
2018-06-27T00:02:42.045Z,5.93
2018-06-27T00:05:10.630Z,6.50
2018-06-27T00:07:39.108Z,6.90
2018-06-27T00:10:07.490Z,6.80
2018-06-27T00:12:35.979Z,6.77
2018-06-27T00:15:04.550Z,6.70
2018-06-27T00:17:32.939Z,6.60
2018-06-27T00:20:01.515Z,7.07
2018-06-27T00:22:30.099Z,6.83
2018-06-27T00:24:58.534Z,7.50
2018-06-27T00:27:27.055Z,7.63
2018-06-27T00:29:55.639Z,7.47
2018-06-27T00:32:24.222Z,7.57
2018-06-27T00:34:52.805Z,7.37
2018-06-27T00:37:21.284Z,7.20
2018-06-27T00:39:49.869Z,8.37
2018-06-27T00:42:18.245Z,7.63
2018-06-27T00:44:46.932Z,7.13
2018-06-27T00:47:15.514Z,8.43
2018-06-27T00:49:44.300Z,7.63
2018-06-27T00:52:12.888Z,7.20
2018-06-27T00:54:41.472Z,7.37
2018-06-27T00:57:10.053Z,7.70
2018-06-27T00:59:38.427Z,7.80
2018-06-27T01:02:07.009Z,7.90
2018-06-27T01:04:35.594Z,7.23
2018-06-27T01:07:04.076Z,7.43
2018-06-27T01:09:32.466Z,6.87
2018-06-27T01:12:01.034Z,6.57
2018-06-27T01:14:29.514Z,6.73
2018-06-27T01:16:57.925Z,7.33
2018-06-27T01:19:26.374Z,6.50
2018-06-27T01:21:55.063Z,6.20
2018-06-27T01:24:23.643Z,7.17
2018-06-27T01:26:52.228Z,5.80
2018-06-27T01:29:20.807Z,6.03
2018-06-27T01:31:49.596Z,5.97
2018-06-27T01:34:18.172Z,6.70
2018-06-27T01:36:46.765Z,6.07
2018-06-27T01:39:15.344Z,6.83
2018-06-27T01:41:43.930Z,6.00
2018-06-27T01:44:12.510Z,6.70
2018-06-27T01:46:41.003Z,6.83
2018-06-27T01:49:09.677Z,6.60
2018-06-27T01:51:38.160Z,7.10
2018-06-27T01:54:06.471Z,6.80
2018-06-27T01:56:34.914Z,6.47
2018-06-27T01:59:03.494Z,6.30
2018-06-27T02:01:31.999Z,5.97
2018-06-27T02:04:00.370Z,5.83
2018-06-27T02:06:28.938Z,5.63
2018-06-27T02:08:57.413Z,6.17
2018-06-27T02:11:25.906Z,6.63
2018-06-27T02:13:54.586Z,5.83
2018-06-27T02:16:22.963Z,6.10
2018-06-27T02:18:51.440Z,6.03
2018-06-27T02:21:20.127Z,6.13
2018-06-27T02:23:48.512Z,5.37
2018-06-27T02:26:17.088Z,5.43
2018-06-27T02:28:45.674Z,5.53
2018-06-27T02:31:14.257Z,5.80
2018-06-27T02:33:42.737Z,5.53
2018-06-27T02:36:11.317Z,5.23
2018-06-27T02:38:39.901Z,5.50
2018-06-27T02:41:08.282Z,5.27
2018-06-27T02:43:36.862Z,7.10
2018-06-27T02:46:05.445Z,6.43
2018-06-27T02:48:33.823Z,5.87
2018-06-27T02:51:02.307Z,6.30
2018-06-27T02:53:35.188Z,6.57
2018-06-27T02:56:03.575Z,6.20
2018-06-27T02:58:32.151Z,6.60
2018-06-27T03:01:00.624Z,6.03
2018-06-27T03:03:29.037Z,5.70
2018-06-27T03:05:57.488Z,5.90
2018-06-27T03:08:26.065Z,5.77
2018-06-27T03:10:54.549Z,6.10
2018-06-27T03:13:23.032Z,5.47
2018-06-27T03:15:51.515Z,6.53
2018-06-27T03:18:19.998Z,6.30
2018-06-27T03:20:48.593Z,6.23
2018-06-27T03:23:17.159Z,5.90
2018-06-27T03:25:45.739Z,5.73
2018-06-27T03:28:37.574Z,6.27
2018-06-27T03:31:06.050Z,5.97
2018-06-27T03:33:34.430Z,5.87
2018-06-27T03:36:02.901Z,5.87
2018-06-27T03:38:31.490Z,6.23
2018-06-27T03:41:00.093Z,6.27
2018-06-27T03:43:28.597Z,5.93
2018-06-27T03:45:57.140Z,6.27
2018-06-27T03:48:25.622Z,5.77
2018-06-27T03:50:54.508Z,6.43
2018-06-27T03:53:22.998Z,6.57
2018-06-27T03:55:56.896Z,5.57
2018-06-27T03:58:25.354Z,5.77
2018-06-27T04:00:53.856Z,5.50
2018-06-27T04:03:22.438Z,5.63
2018-06-27T04:05:51.023Z,6.57
2018-06-27T04:08:19.603Z,7.23
2018-06-27T04:10:48.097Z,5.73
2018-06-27T04:13:19.700Z,5.40
2018-06-27T04:15:48.222Z,5.90
2018-06-27T04:18:16.808Z,5.60
2018-06-27T04:20:45.387Z,5.47
2018-06-27T04:23:13.968Z,5.83
2018-06-27T04:25:42.556Z,5.07
2018-06-27T04:28:11.135Z,6.07
2018-06-27T04:30:39.531Z,6.33
2018-06-27T04:33:07.897Z,6.50
2018-06-27T04:35:36.511Z,6.95
2018-06-27T04:38:04.955Z,6.73
2018-06-27T04:40:33.539Z,6.60
2018-06-27T04:43:02.019Z,6.77
2018-06-27T04:45:30.601Z,6.30
2018-06-27T04:47:59.088Z,6.60
2018-06-27T04:50:27.556Z,7.17
2018-06-27T04:52:56.144Z,7.10
2018-06-27T04:55:24.731Z,7.50
2018-06-27T04:57:53.134Z,7.00
2018-06-27T05:00:21.688Z,7.57
2018-06-27T05:02:50.171Z,7.47
2018-06-27T05:05:18.568Z,8.33
2018-06-27T05:07:47.027Z,8.13
2018-06-27T05:10:15.620Z,6.70
2018-06-27T05:12:44.199Z,8.03
2018-06-27T05:15:12.779Z,6.87
2018-06-27T05:17:41.464Z,7.30
2018-06-27T05:20:10.044Z,7.73
2018-06-27T05:22:38.526Z,8.23
2018-06-27T05:25:07.213Z,8.27
2018-06-27T05:27:35.539Z,8.17
2018-06-27T05:30:04.086Z,16.67
2018-06-27T05:32:32.638Z,9.13
2018-06-27T05:35:00.937Z,8.50
2018-06-27T05:37:29.613Z,8.33
2018-06-27T05:39:58.195Z,8.67
2018-06-27T05:42:26.677Z,8.93
2018-06-27T05:45:01.612Z,9.87
2018-06-27T05:47:30.292Z,9.20
2018-06-27T05:49:58.978Z,9.37
2018-06-27T05:52:27.461Z,9.63
2018-06-27T05:55:01.237Z,8.57
2018-06-27T05:57:29.542Z,8.57
2018-06-27T05:59:57.838Z,8.13
2018-06-27T06:02:26.401Z,7.57
2018-06-27T06:04:54.982Z,7.80
2018-06-27T06:07:23.563Z,8.00
2018-06-27T06:09:52.151Z,8.60
2018-06-27T06:12:20.628Z,9.10
2018-06-27T06:14:49.317Z,7.80
2018-06-27T06:17:17.907Z,8.23
2018-06-27T06:19:46.395Z,9.00
2018-06-27T06:22:14.963Z,7.60
2018-06-27T06:24:44.687Z,8.50
2018-06-27T06:27:14.066Z,8.27
2018-06-27T06:29:43.368Z,8.23
2018-06-27T06:32:11.888Z,7.73
2018-06-27T06:34:40.949Z,7.00
2018-06-27T06:37:09.838Z,6.63
2018-06-27T06:39:38.421Z,6.93
2018-06-27T06:42:07.010Z,7.43
2018-06-27T06:44:35.487Z,7.80
2018-06-27T06:47:03.961Z,7.73
2018-06-27T06:49:32.381Z,7.83
2018-06-27T06:52:00.751Z,8.23
2018-06-27T06:54:29.306Z,7.90
2018-06-27T06:56:57.885Z,7.37
2018-06-27T06:59:26.565Z,7.03
2018-06-27T07:01:55.255Z,7.77
2018-06-27T07:04:23.839Z,7.60
2018-06-27T07:06:52.313Z,7.23
2018-06-27T07:09:20.902Z,6.80
2018-06-27T07:11:49.377Z,7.60
2018-06-27T07:14:18.072Z,6.63
2018-06-27T07:16:46.650Z,6.90
2018-06-27T07:19:15.134Z,7.43
2018-06-27T07:21:43.714Z,7.10
2018-06-27T07:24:12.194Z,7.60
2018-06-27T07:26:40.777Z,7.40
2018-06-27T07:29:09.359Z,7.70
2018-06-27T07:31:37.742Z,7.37
2018-06-27T07:34:06.322Z,7.63
2018-06-27T07:36:34.808Z,7.60
2018-06-27T07:39:04.166Z,7.20
2018-06-27T07:41:32.750Z,5.83
2018-06-27T07:44:01.267Z,7.97
2018-06-27T07:46:30.054Z,7.33
2018-06-27T07:48:58.637Z,6.60
2018-06-27T07:51:27.220Z,6.70
2018-06-27T07:53:55.697Z,6.20
2018-06-27T07:56:24.278Z,5.63
2018-06-27T07:58:52.980Z,6.30
2018-06-27T08:01:21.459Z,6.83
2018-06-27T08:03:50.032Z,6.97
2018-06-27T08:06:18.720Z,5.77
2018-06-27T08:08:47.193Z,5.43
2018-06-27T08:11:15.784Z,5.53
2018-06-27T08:13:44.371Z,5.57
2018-06-27T08:16:13.152Z,6.03
2018-06-27T08:18:43.581Z,5.97
2018-06-27T08:21:12.057Z,5.37
2018-06-27T08:23:40.537Z,5.00
2018-06-27T08:26:09.051Z,5.47
2018-06-27T08:28:37.705Z,5.00
2018-06-27T08:31:06.293Z,5.03
2018-06-27T08:33:34.772Z,5.30
2018-06-27T08:36:03.350Z,4.73
2018-06-27T08:38:32.133Z,5.13
2018-06-27T08:41:00.720Z,4.50
2018-06-27T08:43:29.204Z,4.23
2018-06-27T08:45:57.606Z,4.97
2018-06-27T08:48:26.165Z,5.10
2018-06-27T08:50:54.646Z,5.30
2018-06-27T08:53:23.129Z,4.87
2018-06-27T08:55:51.603Z,4.77
2018-06-27T08:58:20.293Z,4.40
2018-06-27T09:00:48.552Z,5.13
2018-06-27T09:03:17.045Z,4.63
2018-06-27T09:05:45.631Z,4.40
2018-06-27T09:08:14.211Z,4.27
2018-06-27T09:10:42.579Z,4.30
2018-06-27T09:13:11.171Z,4.47
2018-06-27T09:15:39.758Z,4.57
2018-06-27T09:18:08.156Z,5.13
2018-06-27T09:20:36.616Z,4.90
2018-06-27T09:23:05.198Z,4.10
2018-06-27T09:25:33.575Z,4.50
2018-06-27T09:28:02.058Z,3.90
2018-06-27T09:30:30.638Z,3.40
2018-06-27T09:32:59.139Z,3.57
2018-06-27T09:35:27.704Z,3.33
2018-06-27T09:37:56.286Z,3.33
2018-06-27T09:40:24.762Z,3.60
2018-06-27T09:42:53.349Z,2.60
2018-06-27T09:45:21.932Z,2.77
2018-06-27T09:47:50.515Z,3.10
2018-06-27T09:50:19.108Z,3.17
2018-06-27T09:52:47.505Z,2.30
2018-06-27T09:55:16.057Z,2.53
2018-06-27T09:57:44.541Z,2.30
2018-06-27T10:00:18.126Z,2.50
2018-06-27T10:02:46.619Z,2.67
2018-06-27T10:05:15.106Z,2.40
2018-06-27T10:07:43.456Z,2.03
2018-06-27T10:10:11.956Z,2.60
2018-06-27T10:12:40.547Z,2.17
2018-06-27T10:15:09.137Z,2.07
2018-06-27T10:17:37.605Z,2.63
2018-06-27T10:20:06.187Z,2.47
2018-06-27T10:22:34.686Z,2.40
2018-06-27T10:25:03.251Z,2.60
2018-06-27T10:27:31.832Z,2.27
2018-06-27T10:30:00.318Z,2.10
2018-06-27T10:32:28.599Z,2.60
2018-06-27T10:34:57.235Z,2.40
2018-06-27T10:37:25.661Z,2.37
2018-06-27T10:39:54.142Z,2.83
2018-06-27T10:42:22.821Z,2.87
2018-06-27T10:44:51.291Z,2.13
2018-06-27T10:47:19.886Z,2.37
2018-06-27T10:49:48.466Z,2.53
2018-06-27T10:52:16.950Z,2.63
2018-06-27T10:54:50.693Z,2.90
2018-06-27T10:57:19.442Z,2.80
2018-06-27T10:59:48.125Z,2.23
2018-06-27T11:02:16.310Z,2.40
2018-06-27T11:04:44.777Z,2.20
2018-06-27T11:07:13.359Z,2.53
2018-06-27T11:09:41.943Z,2.23
2018-06-27T11:12:10.524Z,1.83
2018-06-27T11:14:39.004Z,1.97
2018-06-27T11:17:07.591Z,1.67
2018-06-27T11:19:36.294Z,1.83
2018-06-27T11:22:04.859Z,1.67
2018-06-27T11:24:33.334Z,2.23
2018-06-27T11:27:01.843Z,2.50
2018-06-27T11:29:30.400Z,1.80
2018-06-27T11:31:59.090Z,1.67
2018-06-27T11:34:27.672Z,1.57
2018-06-27T11:36:56.356Z,1.70
2018-06-27T11:39:24.834Z,1.57
2018-06-27T11:41:53.317Z,2.30
2018-06-27T11:44:21.901Z,1.90
2018-06-27T11:46:50.406Z,1.90
2018-06-27T11:49:18.949Z,2.23
2018-06-27T11:51:47.546Z,1.60
2018-06-27T11:54:16.127Z,1.80
2018-06-27T11:56:44.709Z,1.50
2018-06-27T11:59:13.292Z,1.60
2018-06-27T12:01:41.670Z,1.77
2018-06-27T12:04:10.355Z,1.97
2018-06-27T12:06:38.940Z,1.30
2018-06-27T12:09:08.339Z,1.70
2018-06-27T12:11:36.925Z,1.30
2018-06-27T12:14:05.289Z,1.80
2018-06-27T12:16:33.783Z,1.60
2018-06-27T12:19:02.267Z,1.57
2018-06-27T12:21:30.622Z,1.87
2018-06-27T12:23:59.346Z,1.87
2018-06-27T12:26:27.855Z,2.27
2018-06-27T12:28:56.388Z,2.27
2018-06-27T12:31:24.972Z,1.57
2018-06-27T12:33:53.466Z,1.87
2018-06-27T12:36:22.037Z,1.57
2018-06-27T12:38:50.722Z,1.27
2018-06-27T12:41:19.200Z,1.00
2018-06-27T12:43:47.686Z,1.27
2018-06-27T12:46:16.481Z,1.30
2018-06-27T12:48:45.156Z,1.00
2018-06-27T12:51:13.740Z,1.30
2018-06-27T12:53:42.222Z,1.10
2018-06-27T12:56:10.799Z,1.13
2018-06-27T12:58:39.286Z,1.10
2018-06-27T13:01:07.646Z,1.23
2018-06-27T13:03:36.244Z,1.03
2018-06-27T13:06:05.032Z,1.20
2018-06-27T13:08:33.509Z,1.00
2018-06-27T13:11:02.096Z,1.10
2018-06-27T13:13:30.573Z,1.10
2018-06-27T13:15:59.050Z,0.90
2018-06-27T13:18:27.639Z,1.23
2018-06-27T13:20:56.120Z,1.30
2018-06-27T13:23:24.597Z,1.30
2018-06-27T13:25:53.079Z,1.50
2018-06-27T13:28:21.557Z,1.33
2018-06-27T13:30:50.140Z,1.10
2018-06-27T13:33:18.827Z,1.00
2018-06-27T13:35:47.314Z,1.27
2018-06-27T13:38:15.800Z,1.20
2018-06-27T13:40:44.268Z,1.10
2018-06-27T13:43:12.811Z,1.20
2018-06-27T13:45:41.121Z,1.43
2018-06-27T13:48:09.606Z,1.20
2018-06-27T13:50:38.092Z,1.00
2018-06-27T13:53:06.568Z,1.07
2018-06-27T13:55:35.155Z,1.30
2018-06-27T13:58:03.631Z,0.97
2018-06-27T14:00:32.217Z,0.80
2018-06-27T14:03:00.797Z,1.00
2018-06-27T14:05:29.278Z,1.13
2018-06-27T14:07:57.756Z,1.27
2018-06-27T14:10:26.443Z,0.80
2018-06-27T14:12:54.931Z,1.00
2018-06-27T14:15:23.413Z,1.40
2018-06-27T14:17:51.991Z,1.13
2018-06-27T14:20:20.573Z,1.13
2018-06-27T14:22:49.155Z,1.10
2018-06-27T14:25:17.634Z,1.20
2018-06-27T14:27:46.113Z,1.50
2018-06-27T14:30:14.497Z,1.20
2018-06-27T14:32:42.874Z,1.10
2018-06-27T14:35:11.452Z,2.73
2018-06-27T14:37:39.902Z,2.87
2018-06-27T14:40:08.428Z,2.23
2018-06-27T14:42:37.103Z,1.93
2018-06-27T14:45:05.687Z,2.27
2018-06-27T14:47:34.058Z,2.03
2018-06-27T14:50:02.646Z,2.00
2018-06-27T14:52:31.295Z,2.47
2018-06-27T14:54:59.624Z,2.30
2018-06-27T14:57:28.192Z,2.47
2018-06-27T14:59:57.694Z,2.63
2018-06-27T15:02:26.276Z,2.07
2018-06-27T15:04:54.989Z,1.80
2018-06-27T15:07:23.653Z,1.30
2018-06-27T15:09:52.059Z,1.43
2018-06-27T15:12:20.401Z,1.30
2018-06-27T15:14:49.090Z,1.10
2018-06-27T15:17:17.772Z,1.20
2018-06-27T15:19:46.163Z,1.50
2018-06-27T15:22:14.524Z,1.20
2018-06-27T15:24:43.316Z,1.70
2018-06-27T15:27:11.902Z,1.60
2018-06-27T15:29:41.302Z,4.50
2018-06-27T15:32:09.720Z,7.83
2018-06-27T15:34:38.161Z,1.07
2018-06-27T15:37:06.636Z,1.10
2018-06-27T15:39:35.120Z,1.37
2018-06-27T15:42:03.808Z,1.87
2018-06-27T15:44:32.393Z,1.40
2018-06-27T15:47:00.971Z,1.00
2018-06-27T15:49:29.453Z,1.13
2018-06-27T15:51:57.853Z,1.10
2018-06-27T15:54:26.207Z,1.00
2018-06-27T15:56:55.899Z,1.00
2018-06-27T15:59:24.502Z,1.00
2018-06-27T16:01:53.083Z,0.80
2018-06-27T16:04:21.470Z,1.03
2018-06-27T16:06:50.251Z,0.77
2018-06-27T16:09:18.728Z,2.13
2018-06-27T16:11:47.430Z,1.00
2018-06-27T16:14:15.894Z,0.90
2018-06-27T16:16:44.442Z,1.37
2018-06-27T16:19:12.964Z,1.00
2018-06-27T16:21:41.336Z,1.00
2018-06-27T16:24:09.988Z,0.90
2018-06-27T16:26:38.708Z,1.17
2018-06-27T16:29:07.182Z,0.90
2018-06-27T16:31:35.677Z,1.03
2018-06-27T16:34:04.292Z,1.10
2018-06-27T16:36:32.731Z,0.90
2018-06-27T16:39:01.420Z,1.10
2018-06-27T16:41:29.900Z,1.23
2018-06-27T16:43:58.379Z,1.30
2018-06-27T16:46:27.104Z,1.50
2018-06-27T16:48:55.578Z,1.03
2018-06-27T16:51:24.096Z,1.03
2018-06-27T16:53:52.824Z,0.90
2018-06-27T16:56:21.702Z,0.83
2018-06-27T16:58:50.285Z,1.10
2018-06-27T17:01:18.856Z,1.13
2018-06-27T17:03:47.349Z,1.00
2018-06-27T17:06:15.880Z,1.10
2018-06-27T17:08:44.116Z,0.83
2018-06-27T17:11:12.496Z,1.10
2018-06-27T17:13:41.066Z,1.10
2018-06-27T17:16:09.575Z,0.93
2018-06-27T17:18:38.238Z,1.10
2018-06-27T17:21:06.814Z,1.13
2018-06-27T17:23:35.193Z,0.83
2018-06-27T17:26:03.778Z,1.30
2018-06-27T17:28:32.261Z,1.07
2018-06-27T17:31:01.050Z,0.93
2018-06-27T17:33:29.525Z,1.10
2018-06-27T17:35:58.006Z,1.40
2018-06-27T17:38:26.399Z,0.90
2018-06-27T17:40:55.069Z,1.10
2018-06-27T17:43:23.547Z,1.30
2018-06-27T17:45:52.137Z,1.03
2018-06-27T17:48:20.509Z,1.20
2018-06-27T17:50:48.989Z,1.07
2018-06-27T17:53:17.379Z,0.80
2018-06-27T17:55:45.950Z,0.90
2018-06-27T17:58:14.438Z,1.03
2018-06-27T18:00:42.912Z,1.20
2018-06-27T18:03:11.495Z,1.20
2018-06-27T18:05:40.181Z,1.20
2018-06-27T18:08:08.763Z,1.07
2018-06-27T18:10:37.243Z,1.07
2018-06-27T18:13:05.827Z,1.13
2018-06-27T18:15:34.306Z,1.10
2018-06-27T18:18:02.998Z,3.03
2018-06-27T18:20:31.679Z,1.70
2018-06-27T18:23:00.153Z,1.07
2018-06-27T18:25:28.639Z,1.73
2018-06-27T18:27:57.324Z,1.20
2018-06-27T18:30:25.803Z,1.20
2018-06-27T18:32:54.387Z,0.80
2018-06-27T18:35:22.973Z,0.93
2018-06-27T18:37:51.307Z,1.50
2018-06-27T18:40:19.833Z,1.40
2018-06-27T18:42:48.361Z,1.30
2018-06-27T18:45:16.790Z,1.30
2018-06-27T18:47:45.232Z,1.27
2018-06-27T18:50:13.773Z,1.47
2018-06-27T18:52:42.241Z,0.97
2018-06-27T18:55:10.915Z,0.90
2018-06-27T18:57:39.502Z,1.80
2018-06-27T19:00:08.450Z,8.60
2018-06-27T19:02:36.972Z,1.37
2018-06-27T19:05:05.451Z,1.00
2018-06-27T19:07:33.971Z,1.40
2018-06-27T19:10:02.418Z,1.37
2018-06-27T19:12:30.893Z,1.27
2018-06-27T19:14:59.480Z,1.13
2018-06-27T19:17:27.957Z,0.90
2018-06-27T19:19:56.359Z,1.10
2018-06-27T19:22:24.918Z,1.13
2018-06-27T19:24:53.501Z,1.37
2018-06-27T19:27:21.984Z,0.97
2018-06-27T19:29:50.375Z,1.20
2018-06-27T19:32:18.944Z,1.00
2018-06-27T19:34:47.421Z,1.43
2018-06-27T19:37:16.005Z,1.17
2018-06-27T19:39:44.590Z,0.90
2018-06-27T19:42:13.068Z,1.00
2018-06-27T19:44:41.443Z,1.20
2018-06-27T19:47:09.927Z,1.00
2018-06-27T19:49:38.412Z,1.00
2018-06-27T19:52:06.896Z,0.90
2018-06-27T19:54:35.276Z,0.80
2018-06-27T19:57:03.851Z,1.30
2018-06-27T19:59:32.535Z,4.97
2018-06-27T20:02:01.131Z,3.60
2018-06-27T20:04:29.700Z,1.67
2018-06-27T20:06:58.182Z,2.03
2018-06-27T20:09:26.878Z,1.40
2018-06-27T20:11:55.454Z,2.07
2018-06-27T20:14:24.155Z,1.50
2018-06-27T20:16:52.819Z,1.33
2018-06-27T20:19:21.300Z,1.50
2018-06-27T20:21:49.885Z,3.10
2018-06-27T20:24:18.465Z,3.87
2018-06-27T20:26:47.050Z,1.90
2018-06-27T20:29:15.632Z,1.47
2018-06-27T20:31:44.117Z,1.40
2018-06-27T20:34:12.591Z,1.50
2018-06-27T20:36:41.175Z,1.80
2018-06-27T20:39:10.173Z,1.87
2018-06-27T20:41:39.480Z,1.97
2018-06-27T20:44:07.798Z,1.70
2018-06-27T20:46:36.158Z,1.90
2018-06-27T20:49:04.807Z,3.03
2018-06-27T20:51:33.392Z,3.67
2018-06-27T20:54:02.280Z,2.60
2018-06-27T20:56:30.657Z,1.87
2018-06-27T20:58:59.143Z,2.27
2018-06-27T21:01:27.721Z,2.20
2018-06-27T21:03:56.197Z,2.80
2018-06-27T21:06:24.683Z,4.23
2018-06-27T21:08:53.264Z,1.73
2018-06-27T21:11:21.852Z,1.57
2018-06-27T21:13:50.431Z,1.53
2018-06-27T21:16:18.913Z,1.93
2018-06-27T21:18:47.494Z,2.00
2018-06-27T21:21:16.077Z,2.50
2018-06-27T21:23:44.557Z,2.30
2018-06-27T21:26:13.140Z,2.33
2018-06-27T21:28:41.624Z,2.67
2018-06-27T21:31:10.414Z,1.90
2018-06-27T21:33:38.888Z,1.80
2018-06-27T21:36:07.477Z,1.90
2018-06-27T21:38:35.953Z,1.70
2018-06-27T21:41:04.443Z,1.80
2018-06-27T21:43:33.015Z,1.63
2018-06-27T21:46:01.445Z,2.60
2018-06-27T21:48:29.897Z,2.07
2018-06-27T21:50:58.464Z,2.50
2018-06-27T21:53:27.142Z,2.40
2018-06-27T21:55:55.634Z,2.77
2018-06-27T21:58:24.079Z,3.20
2018-06-27T22:00:52.605Z,2.63
2018-06-27T22:03:21.063Z,2.70
2018-06-27T22:05:49.365Z,2.63
2018-06-27T22:08:18.026Z,3.00
2018-06-27T22:10:46.527Z,3.10
2018-06-27T22:13:14.950Z,3.20
2018-06-27T22:15:43.570Z,2.70
2018-06-27T22:18:12.255Z,2.53
2018-06-27T22:20:40.951Z,3.13
2018-06-27T22:23:09.425Z,2.70
2018-06-27T22:25:38.104Z,2.93
2018-06-27T22:28:06.458Z,2.30
2018-06-27T22:30:34.967Z,3.00
2018-06-27T22:33:03.449Z,3.23
2018-06-27T22:35:31.977Z,2.53
2018-06-27T22:38:00.408Z,2.97
2018-06-27T22:40:28.715Z,3.37
2018-06-27T22:42:57.264Z,2.60
2018-06-27T22:45:25.795Z,2.60
2018-06-27T22:47:54.224Z,2.87
2018-06-27T22:50:22.707Z,2.80
2018-06-27T22:52:51.186Z,2.20
2018-06-27T22:55:19.872Z,3.10
2018-06-27T22:57:48.356Z,4.23
2018-06-27T23:00:16.886Z,2.40
2018-06-27T23:02:45.416Z,2.30
2018-06-27T23:05:13.995Z,2.60
2018-06-27T23:07:42.582Z,3.00
2018-06-27T23:10:11.028Z,2.83
2018-06-27T23:12:39.609Z,2.70
2018-06-27T23:15:08.097Z,2.90
2018-06-27T23:17:36.470Z,3.30
2018-06-27T23:20:04.877Z,3.57
2018-06-27T23:22:38.863Z,2.80
2018-06-27T23:25:07.446Z,3.43
2018-06-27T23:27:35.935Z,2.53
2018-06-27T23:30:05.017Z,2.67
2018-06-27T23:32:33.328Z,3.23
2018-06-27T23:35:01.866Z,3.10
2018-06-27T23:37:30.303Z,3.10
2018-06-27T23:39:59.036Z,2.70
2018-06-27T23:42:27.519Z,3.20
2018-06-27T23:44:56.100Z,2.80
2018-06-27T23:47:24.890Z,2.53
2018-06-27T23:49:53.372Z,2.80
2018-06-27T23:52:21.849Z,2.77
2018-06-27T23:54:50.543Z,2.73
2018-06-27T23:57:18.918Z,2.60
2018-06-27T23:59:47.416Z,2.50
